Weather at Girwood Island Water Aerodrome [CLOSED]

Public forecast

Using degrees Celsius for public forecast. Weather courtesy of forecast.io.

Closest aviation weather report (METAR) to Girwood Island Water Aerodrome

Closest report is Montreal / Pierre Elliott Trudeau International Airport, 10.4 nm (19.2 km) ENE.

2024/05/22 08:00 (retrieved 51 minutes ago)

CYUL 220800Z 01002KT 15SM SCT035 BKN070 18/18 A2981 RMK CF3AC3 SLP098 DENSITY ALT 700FT

Closest aviation forecast (TAF) to Girwood Island Water Aerodrome

Closest forecast is Montreal / Pierre Elliott Trudeau International Airport, 10.4 nm (19.2 km) ENE.

2024/05/22 09:43 (retrieved 0 seconds ago)

TAF CYUL 220840Z 2209/2306 VRB03KT P6SM SCT010 SCT030 TEMPO 2209/2214 4SM BR BKN010 BKN030 FM221400 22005KT P6SM BKN020 BECMG 2214/2216 SKC BECMG 2219/2221 BKN060 FM222200 25007KT P6SM -SHRA BKN040 PROB30 2222/2301 VRB15G30KT 2SM TSRA BR BKN020 OVC050CB FM230100 17008KT 4SM -SHRA BKN030 PROB30 2301/2304 VRB20G35KT 1SM +TSRA BKN020 OVC040CB FM230400 24012G22KT P6SM BKN050 PROB30 2304/2306 4SM TSRA BR BKN030CB RMK NXT FCST BY 221200Z